Time;durP1;ratioP1;P1;durP2;ratioP2;P2;SDS_P1;SDS_P2;PMS_P1;PMS_P2;Temp;Humidity;BMP_temperature;BMP_pressure;BME280_temperature;BME280_humidity;BME280_pressure;Samples;Min_cycle;Max_cycle;Signal;HPM_P1;HPM_P2
2023/11/24 00:00:29;;;;;;;67.78;24.85;;;;;;;8.44;100.00;99791.91;5053556;28;20535;-80
2023/11/24 00:02:55;;;;;;;59.05;22.35;;;;;;;8.64;100.00;99796.31;5054527;28;20045;-80
2023/11/24 00:05:21;;;;;;;55.40;21.55;;;;;;;8.52;100.00;99777.56;5050016;28;20029;-81
2023/11/24 00:07:47;;;;;;;58.90;21.20;;;;;;;8.36;100.00;99800.09;5050059;28;20040;-81
2023/11/24 00:10:13;;;;;;;48.63;19.92;;;;;;;8.49;100.00;99811.72;5052537;28;20028;-80
2023/11/24 00:12:39;;;;;;;45.72;18.80;;;;;;;8.47;100.00;99816.44;5050011;28;20044;-80
2023/11/24 00:15:05;;;;;;;52.65;20.55;;;;;;;8.62;100.00;99809.00;5048891;28;20057;-80
2023/11/24 00:17:31;;;;;;;56.50;18.88;;;;;;;8.60;100.00;99795.09;5050780;28;20510;-80
2023/11/24 00:19:57;;;;;;;62.75;18.60;;;;;;;8.68;100.00;99786.06;5057547;28;20027;-81
2023/11/24 00:22:23;;;;;;;51.60;19.08;;;;;;;8.53;100.00;99762.44;5049452;28;20029;-80
2023/11/24 00:24:51;;;;;;;49.63;19.27;;;;;;;8.53;100.00;99779.19;5050632;28;20414;-81
2023/11/24 00:27:20;;;;;;;43.30;17.30;;;;;;;8.27;100.00;99753.53;5049642;28;20486;-80
2023/11/24 00:29:46;;;;;;;43.17;17.10;;;;;;;8.25;100.00;99750.25;5049610;28;20036;-80
2023/11/24 00:32:11;;;;;;;42.17;18.00;;;;;;;8.19;100.00;99751.09;5066766;28;20110;-80
2023/11/24 00:34:38;;;;;;;43.63;16.35;;;;;;;8.53;100.00;99765.09;5069543;28;20033;-80
2023/11/24 00:37:05;;;;;;;43.63;19.42;;;;;;;8.38;100.00;99752.88;5069486;28;20758;-80
2023/11/24 00:39:32;;;;;;;44.03;17.70;;;;;;;8.49;100.00;99774.53;5064442;28;20541;-81
2023/11/24 00:42:00;;;;;;;42.60;17.85;;;;;;;8.78;100.00;99750.00;5050789;28;20063;-80
2023/11/24 00:44:26;;;;;;;46.10;19.25;;;;;;;8.69;100.00;99729.22;5049186;28;20036;-80
2023/11/24 00:46:52;;;;;;;47.50;19.33;;;;;;;8.61;100.00;99754.22;5050376;28;20036;-81
2023/11/24 00:49:17;;;;;;;51.10;19.63;;;;;;;8.54;100.00;99769.38;5050441;28;20105;-81
2023/11/24 00:51:44;;;;;;;44.30;17.27;;;;;;;8.57;100.00;99753.00;5059266;28;20048;-80
2023/11/24 00:54:09;;;;;;;49.15;18.30;;;;;;;8.74;100.00;99759.44;5049733;28;20025;-80
2023/11/24 00:56:35;;;;;;;47.25;18.80;;;;;;;8.65;100.00;99734.16;5049140;28;20040;-80
2023/11/24 00:59:01;;;;;;;51.72;18.45;;;;;;;8.88;100.00;99738.09;5050307;28;20064;-80
2023/11/24 01:01:26;;;;;;;48.08;19.02;;;;;;;8.50;100.00;99741.59;5057090;28;20523;-79
2023/11/24 01:03:52;;;;;;;56.90;19.35;;;;;;;8.34;100.00;99689.75;5069310;28;20024;-81
2023/11/24 01:06:17;;;;;;;53.08;18.48;;;;;;;8.23;100.00;99697.38;5070160;28;20043;-80
2023/11/24 01:08:43;;;;;;;50.90;19.17;;;;;;;8.27;100.00;99711.00;5070473;28;20031;-81
2023/11/24 01:11:08;;;;;;;45.25;19.45;;;;;;;8.20;100.00;99700.44;5067878;28;20062;-80
2023/11/24 01:13:36;;;;;;;58.50;20.13;;;;;;;8.52;100.00;99710.28;5048345;28;20025;-80
2023/11/24 01:16:03;;;;;;;49.70;19.40;;;;;;;8.49;100.00;99673.53;5050073;28;20037;-80
2023/11/24 01:18:29;;;;;;;50.53;19.37;;;;;;;8.60;100.00;99672.81;5048593;28;20033;-80
2023/11/24 01:20:55;;;;;;;58.97;21.10;;;;;;;8.50;100.00;99672.50;5050203;28;20278;-80
2023/11/24 01:23:20;;;;;;;56.72;19.63;;;;;;;8.70;100.00;99669.69;5050070;28;20120;-83
2023/11/24 01:25:46;;;;;;;53.78;20.55;;;;;;;8.60;100.00;99668.34;5048691;28;20041;-80
2023/11/24 01:28:13;;;;;;;54.35;19.75;;;;;;;8.74;100.00;99681.53;5049516;28;20048;-80
2023/11/24 01:30:39;;;;;;;57.97;21.45;;;;;;;8.76;100.00;99664.31;5048473;28;20127;-81
2023/11/24 01:33:05;;;;;;;60.97;21.30;;;;;;;8.80;100.00;99652.22;5052112;28;20086;-81
2023/11/24 01:35:30;;;;;;;64.53;20.67;;;;;;;8.68;100.00;99647.84;5048565;28;20021;-80
2023/11/24 01:37:57;;;;;;;66.38;21.20;;;;;;;8.79;100.00;99645.28;5049459;28;20669;-81
2023/11/24 01:40:22;;;;;;;68.43;22.58;;;;;;;8.68;100.00;99611.41;5049900;28;20025;-81
2023/11/24 01:42:49;;;;;;;66.53;22.27;;;;;;;8.68;100.00;99631.88;5050148;28;20036;-81
2023/11/24 01:45:14;;;;;;;63.00;20.45;;;;;;;8.26;100.00;99581.88;5048568;28;20804;-81
2023/11/24 01:47:40;;;;;;;64.85;21.42;;;;;;;8.53;100.00;99593.16;5048192;28;20048;-80
2023/11/24 01:50:07;;;;;;;56.72;19.13;;;;;;;8.88;100.00;99589.19;5051995;28;20129;-81
2023/11/24 01:52:34;;;;;;;70.38;21.08;;;;;;;8.62;100.00;99575.91;5057011;28;20079;-80
2023/11/24 01:55:04;;;;;;;63.10;21.90;;;;;;;8.51;100.00;99576.59;5047771;28;20513;-80
2023/11/24 01:57:32;;;;;;;60.72;20.48;;;;;;;8.62;100.00;99575.06;5047612;28;20029;-81
2023/11/24 01:59:59;;;;;;;63.33;19.90;;;;;;;8.50;100.00;99582.97;5050094;28;20037;-80
2023/11/24 02:02:24;;;;;;;58.92;21.35;;;;;;;8.69;100.00;99583.81;5063321;28;20028;-80
2023/11/24 02:04:50;;;;;;;53.97;19.67;;;;;;;8.63;100.00;99592.66;5048157;28;20112;-80
2023/11/24 02:07:16;;;;;;;58.70;21.42;;;;;;;8.63;100.00;99603.31;5049369;28;20037;-80
2023/11/24 02:09:42;;;;;;;60.80;20.50;;;;;;;8.35;100.00;99596.53;5047937;28;20040;-80
2023/11/24 02:12:08;;;;;;;61.05;21.10;;;;;;;8.49;100.00;99575.22;5052575;28;20048;-80
2023/11/24 02:14:33;;;;;;;66.35;20.55;;;;;;;8.54;100.00;99564.72;5051264;28;20523;-81
2023/11/24 02:16:59;;;;;;;76.65;21.38;;;;;;;8.63;100.00;99556.25;5047811;28;20040;-81
2023/11/24 02:19:26;;;;;;;63.75;21.10;;;;;;;8.65;100.00;99564.03;5048362;28;20035;-82
2023/11/24 02:21:52;;;;;;;56.00;21.33;;;;;;;8.44;100.00;99531.50;5054948;28;20145;-80
2023/11/24 02:24:19;;;;;;;67.13;21.77;;;;;;;8.55;100.00;99535.28;5046583;28;20505;-80
2023/11/24 02:26:44;;;;;;;62.67;20.25;;;;;;;8.23;100.00;99545.13;5048956;28;20021;-80
2023/11/24 02:29:10;;;;;;;66.63;20.25;;;;;;;8.48;100.00;99549.66;5048065;28;20035;-80
2023/11/24 02:31:35;;;;;;;76.35;21.52;;;;;;;8.45;100.00;99527.78;5056187;28;20039;-80
2023/11/24 02:34:01;;;;;;;65.30;21.70;;;;;;;8.59;100.00;99533.81;5054591;28;20124;-79
2023/11/24 02:36:30;;;;;;;51.10;18.48;;;;;;;8.68;100.00;99525.56;5048895;28;20135;-81
2023/11/24 02:38:59;;;;;;;50.35;19.08;;;;;;;8.53;100.00;99533.88;5051779;28;20031;-80
2023/11/24 02:41:25;;;;;;;49.13;19.50;;;;;;;8.39;100.00;99506.56;5052716;28;20059;-81
2023/11/24 02:43:50;;;;;;;62.80;19.08;;;;;;;8.73;100.00;99502.59;5069730;28;20032;-80
2023/11/24 02:46:16;;;;;;;61.72;20.10;;;;;;;8.86;100.00;99517.59;5072631;28;20093;-80
2023/11/24 02:48:43;;;;;;;60.33;20.05;;;;;;;8.70;100.00;99491.59;5073007;28;20453;-80
2023/11/24 02:51:09;;;;;;;53.00;19.65;;;;;;;8.70;100.00;99508.34;5067684;28;20045;-80
2023/11/24 02:53:37;;;;;;;59.00;20.02;;;;;;;8.55;100.00;99483.97;5058118;28;20127;-80
2023/11/24 02:56:03;;;;;;;52.03;19.33;;;;;;;8.73;100.00;99502.59;5053120;28;20025;-80
2023/11/24 02:58:29;;;;;;;62.17;19.30;;;;;;;8.60;100.00;99498.25;5051168;28;20545;-80
2023/11/24 03:00:55;;;;;;;55.67;20.65;;;;;;;8.73;100.00;99499.94;5054631;28;20090;-80
2023/11/24 03:03:22;;;;;;;47.53;19.13;;;;;;;8.55;100.00;99473.34;5059138;28;20405;-80
2023/11/24 03:05:50;;;;;;;46.80;17.05;;;;;;;8.43;100.00;99466.09;5052584;28;20124;-81
2023/11/24 03:08:16;;;;;;;48.72;17.30;;;;;;;8.41;100.00;99456.72;5052675;28;20020;-80
2023/11/24 03:10:42;;;;;;;55.58;17.95;;;;;;;8.61;100.00;99454.66;5052471;28;20575;-80
2023/11/24 03:13:08;;;;;;;53.40;16.80;;;;;;;8.56;100.00;99485.59;5051111;28;20562;-80
2023/11/24 03:15:34;;;;;;;55.70;19.23;;;;;;;8.30;100.00;99465.38;5052705;28;20037;-81
2023/11/24 03:17:59;;;;;;;47.80;16.80;;;;;;;8.27;100.00;99437.41;5052783;28;20096;-84
2023/11/24 03:20:25;;;;;;;52.03;17.40;;;;;;;8.26;100.00;99411.88;5051238;28;20102;-80
2023/11/24 03:22:50;;;;;;;50.60;16.42;;;;;;;8.45;100.00;99450.72;5064944;28;20040;-81
2023/11/24 03:25:16;;;;;;;62.97;17.98;;;;;;;8.56;100.00;99459.00;5056941;28;20040;-80
2023/11/24 03:27:41;;;;;;;37.38;16.42;;;;;;;8.36;100.00;99457.34;5052253;28;20035;-83
2023/11/24 03:30:07;;;;;;;49.47;16.33;;;;;;;8.42;100.00;99455.69;5052188;28;20041;-80
2023/11/24 03:32:33;;;;;;;34.50;14.05;;;;;;;8.10;100.00;99431.03;5055706;28;20021;-80
2023/11/24 03:34:59;;;;;;;37.92;14.45;;;;;;;7.82;100.00;99416.34;5070495;28;20170;-80
2023/11/24 03:37:24;;;;;;;37.03;14.20;;;;;;;7.93;100.00;99436.09;5070679;28;20024;-80
2023/11/24 03:39:50;;;;;;;32.15;13.88;;;;;;;8.07;100.00;99439.41;5072144;28;20039;-79
2023/11/24 03:42:15;;;;;;;33.10;14.27;;;;;;;8.04;100.00;99425.53;5071549;28;20028;-80
2023/11/24 03:44:41;;;;;;;33.50;14.07;;;;;;;8.08;100.00;99410.00;5061631;28;20460;-81
2023/11/24 03:47:06;;;;;;;32.92;14.23;;;;;;;8.44;100.00;99417.25;5050536;28;20429;-81
2023/11/24 03:49:32;;;;;;;34.28;14.43;;;;;;;8.15;100.00;99384.19;5049055;28;20109;-81
2023/11/24 03:51:58;;;;;;;40.70;14.23;;;;;;;8.33;100.00;99403.84;5051744;28;20055;-81
2023/11/24 03:54:24;;;;;;;37.38;14.23;;;;;;;8.25;100.00;99391.66;5052713;28;20036;-80
2023/11/24 03:56:49;;;;;;;36.83;14.85;;;;;;;8.14;100.00;99403.81;5050502;28;20037;-82
2023/11/24 03:59:15;;;;;;;42.70;15.32;;;;;;;8.35;100.00;99399.91;5051956;28;20025;-80
2023/11/24 04:01:40;;;;;;;42.22;15.32;;;;;;;8.19;100.00;99411.94;5051357;28;20535;-80
2023/11/24 04:04:06;;;;;;;34.42;14.68;;;;;;;8.20;100.00;99386.19;5053143;28;20060;-80
2023/11/24 04:06:32;;;;;;;41.42;15.23;;;;;;;8.16;100.00;99393.78;5052034;28;20029;-80
2023/11/24 04:08:58;;;;;;;40.58;14.60;;;;;;;8.02;100.00;99363.88;5050471;28;20028;-80
2023/11/24 04:11:23;;;;;;;41.58;16.02;;;;;;;8.10;100.00;99396.50;5051750;28;20037;-81
2023/11/24 04:13:49;;;;;;;45.03;14.73;;;;;;;7.94;100.00;99364.16;5063089;28;20032;-81
2023/11/24 04:16:14;;;;;;;38.28;14.70;;;;;;;8.07;100.00;99365.06;5049676;28;20470;-80
2023/11/24 04:18:41;;;;;;;51.53;14.85;;;;;;;7.74;100.00;99340.44;5051238;28;20116;-80
2023/11/24 04:21:06;;;;;;;50.60;14.07;;;;;;;7.78;100.00;99362.06;5050091;28;20036;-80
2023/11/24 04:23:32;;;;;;;39.10;14.02;;;;;;;7.97;100.00;99360.28;5054220;28;20021;-80
2023/11/24 04:25:57;;;;;;;43.53;12.85;;;;;;;8.07;100.00;99386.31;5050009;28;20033;-84
2023/11/24 04:28:23;;;;;;;42.65;13.73;;;;;;;8.05;100.00;99394.50;5050159;28;20027;-82
2023/11/24 04:30:48;;;;;;;40.25;13.00;;;;;;;8.20;100.00;99383.53;5049895;28;20041;-81
2023/11/24 04:33:14;;;;;;;40.22;13.45;;;;;;;8.04;100.00;99387.56;5060608;28;20028;-81
2023/11/24 04:35:39;;;;;;;39.22;13.05;;;;;;;8.15;100.00;99376.22;5058599;28;20029;-84
2023/11/24 04:38:05;;;;;;;35.33;12.68;;;;;;;8.03;100.00;99343.47;5050711;28;20430;-80
2023/11/24 04:40:30;;;;;;;37.88;13.70;;;;;;;8.12;100.00;99373.19;5050112;28;20041;-81
2023/11/24 04:42:56;;;;;;;36.92;13.52;;;;;;;8.02;100.00;99357.75;5049702;28;20044;-80
2023/11/24 04:45:21;;;;;;;41.25;14.18;;;;;;;8.28;100.00;99393.88;5061975;28;20025;-80
2023/11/24 04:47:47;;;;;;;30.80;14.35;;;;;;;8.24;100.00;99382.88;5049217;28;20032;-80
2023/11/24 04:50:12;;;;;;;34.95;13.95;;;;;;;7.93;100.00;99365.22;5050634;28;20044;-80
2023/11/24 04:52:38;;;;;;;44.47;13.95;;;;;;;8.10;100.00;99368.09;5054486;28;20029;-80
2023/11/24 04:55:04;;;;;;;32.25;12.80;;;;;;;8.16;100.00;99374.38;5058309;28;20040;-83
2023/11/24 04:57:33;;;;;;;44.25;12.45;;;;;;;8.14;100.00;99366.63;5050739;28;20458;-80
2023/11/24 05:00:00;;;;;;;32.08;14.70;;;;;;;8.05;100.00;99383.91;5048730;28;20047;-84
2023/11/24 05:02:27;;;;;;;38.03;12.50;;;;;;;7.85;100.00;99368.13;5049008;28;20032;-81
2023/11/24 05:04:54;;;;;;;41.63;13.88;;;;;;;8.08;100.00;99367.50;5057177;28;20107;-81
2023/11/24 05:07:21;;;;;;;48.40;14.07;;;;;;;8.30;100.00;99388.34;5029015;28;20472;-81
2023/11/24 05:09:47;;;;;;;40.58;12.05;;;;;;;8.01;100.00;99391.47;5045718;28;20033;-83
2023/11/24 05:12:13;;;;;;;39.22;12.48;;;;;;;7.69;100.00;99366.03;5030359;28;20037;-80
2023/11/24 05:14:39;;;;;;;31.00;12.05;;;;;;;7.84;100.00;99379.78;5063327;28;20032;-81
2023/11/24 05:17:05;;;;;;;47.90;13.45;;;;;;;7.84;100.00;99366.50;5051424;28;20033;-80
2023/11/24 05:19:30;;;;;;;37.03;13.57;;;;;;;7.74;100.00;99360.88;5048733;28;20025;-80
2023/11/24 05:21:56;;;;;;;38.90;12.23;;;;;;;7.87;100.00;99366.09;5049630;28;20513;-81
2023/11/24 05:24:21;;;;;;;36.63;13.73;;;;;;;7.92;100.00;99362.75;5052903;28;20020;-81
2023/11/24 05:26:47;;;;;;;47.85;13.18;;;;;;;7.55;100.00;99336.94;5048910;28;20060;-80
2023/11/24 05:29:13;;;;;;;40.47;14.18;;;;;;;7.89;100.00;99341.97;5048797;28;20021;-80
2023/11/24 05:31:38;;;;;;;49.50;13.93;;;;;;;7.90;100.00;99322.34;5049849;28;20025;-81
2023/11/24 05:34:04;;;;;;;40.22;14.80;;;;;;;7.91;100.00;99345.22;5050692;28;20025;-80
2023/11/24 05:36:30;;;;;;;53.47;13.68;;;;;;;7.91;100.00;99335.41;5056094;28;20041;-81
2023/11/24 05:38:57;;;;;;;35.85;13.60;;;;;;;7.54;100.00;99306.16;5049781;28;20063;-81
2023/11/24 05:41:23;;;;;;;55.83;14.27;;;;;;;7.35;100.00;99299.16;5048257;28;20025;-80
2023/11/24 05:43:48;;;;;;;37.05;12.05;;;;;;;7.43;100.00;99302.34;5057678;28;20405;-80
2023/11/24 05:46:14;;;;;;;37.47;12.57;;;;;;;7.45;100.00;99320.69;5059786;28;20029;-80
2023/11/24 05:48:39;;;;;;;30.95;12.20;;;;;;;7.55;100.00;99330.84;5047984;28;20409;-80
2023/11/24 05:51:05;;;;;;;57.63;12.52;;;;;;;7.59;100.00;99327.53;5049631;28;20056;-81
2023/11/24 05:53:31;;;;;;;62.55;15.35;;;;;;;7.64;100.00;99319.72;5049503;28;20029;-81
2023/11/24 05:55:57;;;;;;;47.05;12.38;;;;;;;7.50;100.00;99318.22;5059826;28;20040;-80
2023/11/24 05:58:23;;;;;;;56.80;14.82;;;;;;;7.34;100.00;99298.34;5068137;28;20032;-80
2023/11/24 06:00:49;;;;;;;41.10;14.45;;;;;;;7.42;100.00;99329.09;5068139;28;20035;-80
2023/11/24 06:03:15;;;;;;;44.15;14.52;;;;;;;7.21;100.00;99288.66;5066649;28;20025;-82
2023/11/24 06:05:41;;;;;;;52.20;16.88;;;;;;;7.49;100.00;99313.94;5055898;28;20029;-80
2023/11/24 06:08:07;;;;;;;47.20;14.63;;;;;;;7.82;100.00;99336.72;5047685;28;20068;-80
2023/11/24 06:10:32;;;;;;;51.80;15.23;;;;;;;7.58;100.00;99330.38;5049059;28;20075;-80
2023/11/24 06:12:58;;;;;;;66.70;17.70;;;;;;;7.84;100.00;99316.06;5048934;28;20032;-81
2023/11/24 06:15:24;;;;;;;72.22;17.30;;;;;;;7.81;100.00;99296.09;5052595;28;20086;-83
2023/11/24 06:17:50;;;;;;;37.65;15.30;;;;;;;7.92;100.00;99313.13;5051514;28;20028;-80
2023/11/24 06:20:18;;;;;;;43.67;15.63;;;;;;;7.96;100.00;99322.28;5047968;28;20029;-80
2023/11/24 06:22:44;;;;;;;49.13;16.27;;;;;;;8.05;100.00;99315.66;5049021;28;20032;-80
2023/11/24 06:25:10;;;;;;;72.13;16.08;;;;;;;7.90;100.00;99317.03;5048780;28;20548;-79
2023/11/24 06:27:36;;;;;;;41.15;15.45;;;;;;;7.65;100.00;99294.00;5047750;28;20108;-78
2023/11/24 06:30:05;;;;;;;33.95;13.25;;;;;;;7.56;100.00;99298.78;5048640;28;20549;-78
2023/11/24 06:32:31;;;;;;;40.47;14.45;;;;;;;7.67;100.00;99296.44;5047177;28;20071;-79
2023/11/24 06:34:57;;;;;;;40.58;14.80;;;;;;;7.79;100.00;99297.34;5050180;28;20033;-79
2023/11/24 06:37:22;;;;;;;37.25;13.15;;;;;;;7.99;100.00;99316.53;5054950;28;20414;-78
2023/11/24 06:39:48;;;;;;;31.80;12.15;;;;;;;7.95;100.00;99320.66;5048000;28;20758;-79
2023/11/24 06:42:13;;;;;;;37.85;12.15;;;;;;;7.70;100.00;99306.59;5046879;28;20024;-78
2023/11/24 06:44:38;;;;;;;42.58;14.75;;;;;;;7.69;100.00;99305.81;5046575;28;20029;-79
2023/11/24 06:47:04;;;;;;;47.40;14.13;;;;;;;7.80;100.00;99313.03;5065047;28;20032;-80
2023/11/24 06:49:31;;;;;;;48.35;12.90;;;;;;;7.75;100.00;99304.13;5067179;28;20033;-81
2023/11/24 06:51:57;;;;;;;50.67;15.33;;;;;;;7.96;100.00;99316.16;5068353;28;20044;-80
2023/11/24 06:54:22;;;;;;;35.25;13.80;;;;;;;7.98;100.00;99314.09;5062174;28;20029;-79
2023/11/24 06:56:48;;;;;;;37.40;14.90;;;;;;;7.98;100.00;99314.91;5056955;28;20029;-80
2023/11/24 06:59:13;;;;;;;33.63;12.43;;;;;;;7.74;100.00;99299.81;5047313;28;20047;-80
2023/11/24 07:01:38;;;;;;;31.38;13.05;;;;;;;7.54;100.00;99297.34;5047276;28;20021;-80
2023/11/24 07:04:04;;;;;;;39.45;12.88;;;;;;;7.54;100.00;99261.03;5048822;28;20033;-80
2023/11/24 07:06:30;;;;;;;33.03;12.60;;;;;;;7.67;100.00;99277.88;5056601;28;20024;-80
2023/11/24 07:08:56;;;;;;;30.05;11.45;;;;;;;7.49;100.00;99271.47;5027974;28;20116;-79
2023/11/24 07:11:23;;;;;;;28.20;12.38;;;;;;;7.79;100.00;99262.84;5027660;28;20439;-81
2023/11/24 07:13:49;;;;;;;32.92;12.65;;;;;;;8.04;100.00;99279.50;5027706;28;20092;-80
2023/11/24 07:16:16;;;;;;;31.80;12.25;;;;;;;8.18;100.00;99287.31;5058182;28;20064;-81
2023/11/24 07:18:41;;;;;;;53.65;13.27;;;;;;;7.88;100.00;99266.81;5050356;28;20171;-81
2023/11/24 07:21:07;;;;;;;92.15;62.97;;;;;;;7.54;100.00;99250.44;5048490;28;20112;-80
2023/11/24 07:23:33;;;;;;;47.85;30.52;;;;;;;7.77;100.00;99284.28;5049352;28;20120;-79
2023/11/24 07:25:58;;;;;;;27.80;12.00;;;;;;;7.90;100.00;99275.38;5060868;28;20083;-81
2023/11/24 07:28:24;;;;;;;30.27;11.93;;;;;;;8.00;100.00;99254.41;5052505;28;20032;-81
2023/11/24 07:30:50;;;;;;;54.60;31.50;;;;;;;8.01;100.00;99245.44;5052242;28;20029;-80
2023/11/24 07:33:16;;;;;;;42.33;13.63;;;;;;;8.03;100.00;99237.25;5050884;28;20025;-81
2023/11/24 07:35:43;;;;;;;34.08;15.63;;;;;;;8.07;100.00;99235.78;5055073;28;20038;-80
2023/11/24 07:38:08;;;;;;;33.58;12.93;;;;;;;8.04;100.00;99221.09;5054612;28;20040;-81
2023/11/24 07:40:35;;;;;;;43.53;13.88;;;;;;;8.04;100.00;99239.66;5052259;28;20029;-79
2023/11/24 07:43:00;;;;;;;31.02;15.35;;;;;;;8.14;100.00;99230.38;5050677;28;20536;-80
2023/11/24 07:45:26;;;;;;;39.22;31.58;;;;;;;7.70;100.00;99206.56;5050527;28;20545;-80
2023/11/24 07:47:51;;;;;;;50.80;40.05;;;;;;;8.08;100.00;99220.66;5052275;28;20501;-79
2023/11/24 07:50:17;;;;;;;38.92;26.17;;;;;;;8.01;100.00;99234.81;5050229;28;20056;-80
2023/11/24 07:52:46;;;;;;;32.88;23.20;;;;;;;8.05;100.00;99232.53;5052077;28;20048;-80
2023/11/24 07:55:13;;;;;;;24.23;12.95;;;;;;;8.31;100.00;99249.16;5051680;28;20474;-81
2023/11/24 07:57:41;;;;;;;20.92;11.25;;;;;;;8.50;100.00;99248.13;5055304;28;20021;-82
2023/11/24 08:00:12;;;;;;;20.10;9.63;;;;;;;8.52;100.00;99224.81;5060289;28;20040;-81
2023/11/24 08:02:42;;;;;;;19.08;8.75;;;;;;;8.67;100.00;99243.00;5062526;28;20048;-81
2023/11/24 08:05:08;;;;;;;25.35;10.35;;;;;;;8.78;100.00;99242.19;5060650;28;20033;-82
2023/11/24 08:07:34;;;;;;;25.13;12.40;;;;;;;8.88;100.00;99232.88;5061915;28;20036;-81
2023/11/24 08:10:00;;;;;;;23.48;11.50;;;;;;;8.81;100.00;99225.81;5062044;28;20029;-82
2023/11/24 08:12:25;;;;;;;19.67;10.82;;;;;;;8.89;100.00;99218.53;5060994;28;20115;-82
2023/11/24 08:14:51;;;;;;;21.70;10.55;;;;;;;8.62;100.00;99173.75;5058928;28;20036;-80
2023/11/24 08:17:16;;;;;;;21.00;10.75;;;;;;;9.02;100.00;99197.06;5064088;28;20025;-85
2023/11/24 08:20:00;;;;;;;24.42;14.15;;;;;;;9.14;100.00;99210.38;5060321;28;20033;-80
2023/11/24 08:22:28;;;;;;;36.70;18.63;;;;;;;9.16;100.00;99187.00;5054766;28;20017;-81
2023/11/24 08:24:54;;;;;;;28.10;13.63;;;;;;;8.79;100.00;99197.84;5054667;28;20029;-81
2023/11/24 08:27:22;;;;;;;26.05;13.38;;;;;;;8.78;100.00;99174.94;5061445;28;20024;-81
2023/11/24 08:29:47;;;;;;;25.80;12.60;;;;;;;8.69;100.00;99171.81;5054260;28;20074;-83
2023/11/24 08:32:13;;;;;;;27.63;12.75;;;;;;;8.80;100.00;99165.69;5054178;28;20045;-80
2023/11/24 08:34:38;;;;;;;26.33;12.27;;;;;;;8.91;100.00;99163.25;5054251;28;20021;-81
2023/11/24 08:37:04;;;;;;;26.48;13.23;;;;;;;8.92;100.00;99159.59;5063770;28;20029;-81
2023/11/24 08:39:30;;;;;;;24.67;11.35;;;;;;;8.73;100.00;99159.69;5059452;28;20041;-81
2023/11/24 08:41:55;;;;;;;26.42;13.68;;;;;;;8.56;100.00;99143.59;5053466;28;20031;-80
2023/11/24 08:44:24;;;;;;;33.38;15.30;;;;;;;8.92;100.00;99156.91;5052760;28;20365;-81
2023/11/24 08:46:51;;;;;;;26.00;14.38;;;;;;;8.86;100.00;99153.31;5054178;28;20029;-80
2023/11/24 08:49:17;;;;;;;21.77;11.37;;;;;;;8.75;100.00;99168.22;5051799;28;20525;-81
2023/11/24 08:51:43;;;;;;;21.63;11.27;;;;;;;8.29;100.00;99151.09;5050295;28;20088;-80
2023/11/24 08:54:09;;;;;;;25.40;12.57;;;;;;;8.15;100.00;99161.13;5050111;28;20478;-81
2023/11/24 08:56:36;;;;;;;23.48;12.52;;;;;;;8.32;100.00;99161.28;5052999;28;20040;-79
2023/11/24 08:59:03;;;;;;;23.20;12.27;;;;;;;7.90;100.00;99136.53;5055343;28;20036;-80
2023/11/24 09:01:29;;;;;;;19.87;11.27;;;;;;;7.99;100.00;99141.31;5049590;28;20409;-80
2023/11/24 09:03:54;;;;;;;25.35;12.30;;;;;;;8.32;100.00;99155.97;5050704;28;20770;-80
2023/11/24 09:06:26;;;;;;;29.60;13.63;;;;;;;8.61;100.00;99137.59;5050695;28;20040;-81
2023/11/24 09:08:52;;;;;;;30.02;13.88;;;;;;;8.62;100.00;99097.50;5054849;28;20171;-80
2023/11/24 09:11:18;;;;;;;25.65;13.27;;;;;;;8.67;100.00;99125.22;5049114;28;20493;-81
2023/11/24 09:13:43;;;;;;;25.73;12.82;;;;;;;8.28;100.00;99101.66;5049825;28;20025;-82
2023/11/24 09:16:09;;;;;;;35.28;13.75;;;;;;;8.40;100.00;99089.22;5048446;28;20082;-80
2023/11/24 09:18:34;;;;;;;35.33;19.13;;;;;;;8.92;100.00;99101.88;5053050;28;20087;-80
2023/11/24 09:20:59;;;;;;;27.75;14.27;;;;;;;8.88;100.00;99083.97;5048850;28;20032;-80
2023/11/24 09:23:25;;;;;;;37.92;21.05;;;;;;;9.16;100.00;99092.03;5048448;28;20083;-81
2023/11/24 09:25:50;;;;;;;26.85;14.05;;;;;;;8.58;100.00;99052.97;5048299;28;20090;-82
2023/11/24 09:28:20;;;;;;;27.42;14.07;;;;;;;8.51;100.00;99073.56;5052985;28;20094;-80
2023/11/24 09:30:45;;;;;;;38.22;16.50;;;;;;;8.47;100.00;99070.53;5028432;28;20037;-80
2023/11/24 09:33:11;;;;;;;26.90;13.80;;;;;;;8.06;100.00;99013.75;5029819;28;20025;-80
2023/11/24 09:35:36;;;;;;;31.08;15.35;;;;;;;8.49;100.00;99033.94;5028620;28;20029;-80
2023/11/24 09:38:02;;;;;;;27.00;14.40;;;;;;;8.68;100.00;99063.84;5051446;28;20029;-81
2023/11/24 09:40:28;;;;;;;27.35;13.95;;;;;;;8.79;100.00;99047.09;5048288;28;20032;-81
2023/11/24 09:42:53;;;;;;;29.77;15.80;;;;;;;9.18;100.00;99047.41;5049531;28;20037;-80
2023/11/24 09:45:22;;;;;;;27.88;14.68;;;;;;;9.41;100.00;99046.53;5049522;28;20036;-80
2023/11/24 09:47:49;;;;;;;31.92;16.17;;;;;;;9.36;100.00;99022.50;5060387;28;20123;-82
2023/11/24 09:50:24;;;;;;;36.63;18.73;;;;;;;9.57;100.00;99023.69;5053869;28;20125;-80
2023/11/24 09:52:58;;;;;;;35.40;17.60;;;;;;;9.69;100.00;99030.81;5047653;28;20267;-81
2023/11/24 09:55:26;;;;;;;37.83;18.45;;;;;;;9.50;100.00;99017.72;5047825;28;20033;-80
2023/11/24 09:57:51;;;;;;;35.05;18.42;;;;;;;9.38;100.00;98998.31;5035056;28;20123;-81
2023/11/24 10:00:20;;;;;;;37.63;19.40;;;;;;;9.34;100.00;99003.28;5052436;28;20053;-80
2023/11/24 10:02:47;;;;;;;36.67;18.98;;;;;;;9.59;100.00;98984.31;5049021;28;20110;-80
2023/11/24 10:05:19;;;;;;;47.85;35.88;;;;;;;9.75;100.00;98964.13;5047882;28;20072;-80
2023/11/24 10:07:47;;;;;;;44.80;24.88;;;;;;;10.21;100.00;98986.16;5059484;28;20025;-80
2023/11/24 10:10:22;;;;;;;37.45;20.98;;;;;;;10.22;100.00;98997.63;5049240;28;20082;-80
2023/11/24 10:12:50;;;;;;;39.88;21.38;;;;;;;9.98;100.00;98968.47;5047688;28;20545;-80
2023/11/24 10:15:16;;;;;;;36.63;20.13;;;;;;;10.23;100.00;98973.38;5047751;28;20037;-80
2023/11/24 10:17:45;;;;;;;40.33;21.08;;;;;;;10.10;100.00;98972.94;5048298;28;20520;-80
2023/11/24 10:20:11;;;;;;;35.83;18.25;;;;;;;9.69;100.00;98965.06;5050569;28;20166;-80
2023/11/24 10:22:37;;;;;;;36.72;22.40;;;;;;;9.91;100.00;98964.34;5047441;28;20036;-81
2023/11/24 10:25:09;;;;;;;40.08;22.35;;;;;;;10.26;100.00;98956.94;5047321;28;20504;-80
2023/11/24 10:27:35;;;;;;;42.03;22.42;;;;;;;10.30;100.00;98957.28;5055420;28;20024;-81
2023/11/24 10:30:00;;;;;;;47.75;25.20;;;;;;;10.31;100.00;98940.22;5051310;28;20035;-80
2023/11/24 10:32:26;;;;;;;47.80;25.80;;;;;;;10.22;100.00;98939.03;5048899;28;20111;-80
2023/11/24 10:34:51;;;;;;;43.88;23.27;;;;;;;10.61;100.00;98960.38;5048509;28;20036;-81
2023/11/24 10:37:19;;;;;;;58.72;40.40;;;;;;;10.46;100.00;98934.31;5048971;28;20122;-80
2023/11/24 10:39:46;;;;;;;54.85;28.35;;;;;;;10.43;100.00;98932.94;5059999;28;20114;-81
2023/11/24 10:42:15;;;;;;;41.13;22.40;;;;;;;10.36;100.00;98915.50;5048824;28;20087;-82
2023/11/24 10:44:41;;;;;;;40.63;21.83;;;;;;;10.61;100.00;98931.84;5048578;28;20056;-80
2023/11/24 10:47:09;;;;;;;42.38;23.73;;;;;;;10.90;100.00;98931.69;5048405;28;20036;-81
2023/11/24 10:49:41;;;;;;;37.60;22.77;;;;;;;11.13;100.00;98905.78;5058481;28;20021;-81
2023/11/24 10:52:22;;;;;;;39.75;22.05;;;;;;;11.37;100.00;98908.97;5047365;28;20032;-80
2023/11/24 10:54:56;;;;;;;37.63;21.00;;;;;;;11.78;100.00;98901.31;5048026;28;20086;-83
2023/11/24 10:57:23;;;;;;;43.30;23.98;;;;;;;11.83;100.00;98877.34;5050008;28;20027;-83
2023/11/24 10:59:49;;;;;;;42.40;24.50;;;;;;;11.72;100.00;98879.09;5068841;28;20108;-81
2023/11/24 11:02:15;;;;;;;42.58;24.75;;;;;;;11.99;100.00;98881.75;5071920;28;20078;-80
2023/11/24 11:05:00;;;;;;;40.00;22.30;;;;;;;12.06;100.00;98876.97;5070907;28;20442;-80
2023/11/24 11:07:52;;;;;;;39.03;22.98;;;;;;;12.18;100.00;98871.44;5070419;28;20475;-81
2023/11/24 11:10:25;;;;;;;39.55;22.80;;;;;;;13.27;100.00;98862.72;5059137;28;20040;-80
2023/11/24 11:12:53;;;;;;;36.88;20.73;;;;;;;13.41;98.63;98830.91;5050018;28;20040;-81